sensor_id;sensor_type;location;lat;lon;timestamp;pressure;altitude;pressure_sealevel;temperature;humidity
60479;BME280;46321;48.398;11.754;2024-02-26T00:01:20;94932.16;;;2.72;83.15
60479;BME280;46321;48.398;11.754;2024-02-26T00:03:46;94937.88;;;2.68;82.93
60479;BME280;46321;48.398;11.754;2024-02-26T00:06:12;94931.66;;;2.60;83.15
60479;BME280;46321;48.398;11.754;2024-02-26T00:08:37;94924.97;;;2.58;83.49
60479;BME280;46321;48.398;11.754;2024-02-26T00:11:03;94920.56;;;2.50;84.03
60479;BME280;46321;48.398;11.754;2024-02-26T00:13:28;94922.53;;;2.48;84.07
60479;BME280;46321;48.398;11.754;2024-02-26T00:15:53;94920.22;;;2.45;83.89
60479;BME280;46321;48.398;11.754;2024-02-26T00:18:18;94914.19;;;2.36;84.13
60479;BME280;46321;48.398;11.754;2024-02-26T00:20:44;94922.50;;;2.31;84.49
60479;BME280;46321;48.398;11.754;2024-02-26T00:23:09;94916.63;;;2.29;84.24
60479;BME280;46321;48.398;11.754;2024-02-26T00:25:34;94915.66;;;2.30;84.28
60479;BME280;46321;48.398;11.754;2024-02-26T00:28:01;94907.00;;;2.29;84.22
60479;BME280;46321;48.398;11.754;2024-02-26T00:30:26;94911.56;;;2.27;84.71
60479;BME280;46321;48.398;11.754;2024-02-26T00:32:51;94913.72;;;2.24;84.58
60479;BME280;46321;48.398;11.754;2024-02-26T00:35:16;94913.53;;;2.25;84.14
60479;BME280;46321;48.398;11.754;2024-02-26T00:37:45;94917.28;;;2.23;84.37
60479;BME280;46321;48.398;11.754;2024-02-26T00:40:10;94920.38;;;2.18;84.43
60479;BME280;46321;48.398;11.754;2024-02-26T00:42:36;94913.53;;;2.17;84.19
60479;BME280;46321;48.398;11.754;2024-02-26T00:45:01;94915.50;;;2.15;84.11
60479;BME280;46321;48.398;11.754;2024-02-26T00:47:26;94909.94;;;2.10;84.12
60479;BME280;46321;48.398;11.754;2024-02-26T00:49:51;94905.38;;;2.12;83.99
60479;BME280;46321;48.398;11.754;2024-02-26T00:52:17;94911.41;;;2.12;83.43
60479;BME280;46321;48.398;11.754;2024-02-26T00:54:42;94912.38;;;2.11;83.32
60479;BME280;46321;48.398;11.754;2024-02-26T00:57:07;94906.66;;;2.08;83.25
60479;BME280;46321;48.398;11.754;2024-02-26T00:59:33;94912.19;;;2.04;83.01
60479;BME280;46321;48.398;11.754;2024-02-26T01:01:58;94906.66;;;1.99;83.20
60479;BME280;46321;48.398;11.754;2024-02-26T01:04:25;94907.63;;;1.98;83.24
60479;BME280;46321;48.398;11.754;2024-02-26T01:06:50;94905.19;;;1.97;83.34
60479;BME280;46321;48.398;11.754;2024-02-26T01:09:15;94903.72;;;1.94;83.17
60479;BME280;46321;48.398;11.754;2024-02-26T01:11:42;94913.66;;;1.90;83.14
60479;BME280;46321;48.398;11.754;2024-02-26T01:14:07;94901.41;;;1.91;83.25
60479;BME280;46321;48.398;11.754;2024-02-26T01:16:32;94904.00;;;1.91;83.10
60479;BME280;46321;48.398;11.754;2024-02-26T01:18:57;94902.53;;;1.80;83.30
60479;BME280;46321;48.398;11.754;2024-02-26T01:21:23;94911.97;;;1.73;83.73
60479;BME280;46321;48.398;11.754;2024-02-26T01:23:48;94913.28;;;1.77;83.83
60479;BME280;46321;48.398;11.754;2024-02-26T01:26:13;94917.69;;;1.68;84.34
60479;BME280;46321;48.398;11.754;2024-02-26T01:28:39;94907.06;;;1.69;84.08
60479;BME280;46321;48.398;11.754;2024-02-26T01:31:04;94908.50;;;1.64;84.57
60479;BME280;46321;48.398;11.754;2024-02-26T01:33:31;94916.66;;;1.60;84.26
60479;BME280;46321;48.398;11.754;2024-02-26T01:35:57;94909.00;;;1.59;84.23
60479;BME280;46321;48.398;11.754;2024-02-26T01:38:22;94916.97;;;1.57;84.19
60479;BME280;46321;48.398;11.754;2024-02-26T01:40:47;94914.69;;;1.54;83.90
60479;BME280;46321;48.398;11.754;2024-02-26T01:43:12;94917.78;;;1.50;84.33
60479;BME280;46321;48.398;11.754;2024-02-26T01:45:38;94910.78;;;1.50;84.24
60479;BME280;46321;48.398;11.754;2024-02-26T01:48:03;94903.25;;;1.47;84.11
60479;BME280;46321;48.398;11.754;2024-02-26T01:50:29;94903.56;;;1.44;84.17
60479;BME280;46321;48.398;11.754;2024-02-26T01:52:55;94899.16;;;1.44;84.02
60479;BME280;46321;48.398;11.754;2024-02-26T01:55:22;94901.59;;;1.46;84.14
60479;BME280;46321;48.398;11.754;2024-02-26T01:57:49;94899.78;;;1.38;84.44
60479;BME280;46321;48.398;11.754;2024-02-26T02:00:17;94908.44;;;1.39;84.27
60479;BME280;46321;48.398;11.754;2024-02-26T02:02:43;94910.88;;;1.40;83.92
60479;BME280;46321;48.398;11.754;2024-02-26T02:05:12;94910.38;;;1.36;84.09
60479;BME280;46321;48.398;11.754;2024-02-26T02:07:38;94911.84;;;1.39;84.07
60479;BME280;46321;48.398;11.754;2024-02-26T02:10:05;94909.38;;;1.29;84.16
60479;BME280;46321;48.398;11.754;2024-02-26T02:12:30;94910.47;;;1.18;84.93
60479;BME280;46321;48.398;11.754;2024-02-26T02:14:58;94908.00;;;1.17;84.93
60479;BME280;46321;48.398;11.754;2024-02-26T02:17:23;94902.47;;;1.20;84.56
60479;BME280;46321;48.398;11.754;2024-02-26T02:19:48;94900.88;;;1.19;84.34
60479;BME280;46321;48.398;11.754;2024-02-26T02:22:14;94894.81;;;1.18;84.20
60479;BME280;46321;48.398;11.754;2024-02-26T02:24:39;94893.19;;;1.17;85.03
60479;BME280;46321;48.398;11.754;2024-02-26T02:27:04;94891.88;;;1.21;84.74
60479;BME280;46321;48.398;11.754;2024-02-26T02:29:30;94890.94;;;1.22;85.07
60479;BME280;46321;48.398;11.754;2024-02-26T02:31:56;94888.13;;;1.16;85.41
60479;BME280;46321;48.398;11.754;2024-02-26T02:34:22;94897.56;;;1.17;85.51
60479;BME280;46321;48.398;11.754;2024-02-26T02:36:51;94896.25;;;1.12;85.50
60479;BME280;46321;48.398;11.754;2024-02-26T02:39:17;94888.09;;;1.07;85.73
60479;BME280;46321;48.398;11.754;2024-02-26T02:41:42;94884.84;;;1.05;85.93
60479;BME280;46321;48.398;11.754;2024-02-26T02:44:08;94882.88;;;1.07;85.94
60479;BME280;46321;48.398;11.754;2024-02-26T02:46:33;94880.47;;;1.14;85.86
60479;BME280;46321;48.398;11.754;2024-02-26T02:49:00;94874.59;;;1.12;85.65
60479;BME280;46321;48.398;11.754;2024-02-26T02:51:25;94871.00;;;1.13;85.56
60479;BME280;46321;48.398;11.754;2024-02-26T02:53:50;94870.72;;;1.16;85.35
60479;BME280;46321;48.398;11.754;2024-02-26T02:56:16;94863.97;;;1.05;85.73
60479;BME280;46321;48.398;11.754;2024-02-26T02:58:41;94880.31;;;1.16;85.57
60479;BME280;46321;48.398;11.754;2024-02-26T03:01:06;94878.84;;;1.21;86.10
60479;BME280;46321;48.398;11.754;2024-02-26T03:03:31;94874.47;;;1.22;85.88
60479;BME280;46321;48.398;11.754;2024-02-26T03:05:57;94886.00;;;1.19;85.64
60479;BME280;46321;48.398;11.754;2024-02-26T03:08:22;94890.25;;;1.12;85.72
60479;BME280;46321;48.398;11.754;2024-02-26T03:10:47;94889.41;;;1.11;85.47
60479;BME280;46321;48.398;11.754;2024-02-26T03:13:13;94883.19;;;1.04;85.14
60479;BME280;46321;48.398;11.754;2024-02-26T03:15:38;94892.16;;;1.10;85.01
60479;BME280;46321;48.398;11.754;2024-02-26T03:18:04;94887.28;;;1.07;85.00
60479;BME280;46321;48.398;11.754;2024-02-26T03:20:29;94875.84;;;1.08;85.32
60479;BME280;46321;48.398;11.754;2024-02-26T03:22:54;94866.09;;;1.10;85.21
60479;BME280;46321;48.398;11.754;2024-02-26T03:25:19;94865.78;;;1.13;85.46
60479;BME280;46321;48.398;11.754;2024-02-26T03:27:45;94857.63;;;1.08;85.40
60479;BME280;46321;48.398;11.754;2024-02-26T03:30:10;94863.19;;;1.13;85.18
60479;BME280;46321;48.398;11.754;2024-02-26T03:32:35;94871.00;;;1.13;85.15
60479;BME280;46321;48.398;11.754;2024-02-26T03:35:01;94864.00;;;1.13;85.15
60479;BME280;46321;48.398;11.754;2024-02-26T03:37:27;94866.63;;;1.13;85.54
60479;BME280;46321;48.398;11.754;2024-02-26T03:39:52;94874.88;;;1.00;86.07
60479;BME280;46321;48.398;11.754;2024-02-26T03:42:18;94872.75;;;1.04;85.71
60479;BME280;46321;48.398;11.754;2024-02-26T03:44:43;94874.91;;;1.09;85.60
60479;BME280;46321;48.398;11.754;2024-02-26T03:47:09;94865.31;;;1.18;85.36
60479;BME280;46321;48.398;11.754;2024-02-26T03:49:34;94864.19;;;1.20;84.92
60479;BME280;46321;48.398;11.754;2024-02-26T03:52:00;94862.09;;;1.24;85.03
60479;BME280;46321;48.398;11.754;2024-02-26T03:54:25;94858.53;;;1.25;84.56
60479;BME280;46321;48.398;11.754;2024-02-26T03:56:50;94861.91;;;1.25;84.23
60479;BME280;46321;48.398;11.754;2024-02-26T03:59:15;94871.84;;;1.22;84.44
60479;BME280;46321;48.398;11.754;2024-02-26T04:01:48;94867.47;;;1.22;84.31
60479;BME280;46321;48.398;11.754;2024-02-26T04:04:13;94868.63;;;1.28;84.22
60479;BME280;46321;48.398;11.754;2024-02-26T04:06:38;94868.66;;;1.36;83.89
60479;BME280;46321;48.398;11.754;2024-02-26T04:09:04;94872.72;;;1.39;83.71
60479;BME280;46321;48.398;11.754;2024-02-26T04:11:29;94870.94;;;1.40;84.08
60479;BME280;46321;48.398;11.754;2024-02-26T04:13:54;94875.84;;;1.43;83.91
60479;BME280;46321;48.398;11.754;2024-02-26T04:16:20;94873.91;;;1.45;83.85
60479;BME280;46321;48.398;11.754;2024-02-26T04:18:45;94872.44;;;1.51;84.04
60479;BME280;46321;48.398;11.754;2024-02-26T04:21:10;94877.34;;;1.54;83.77
60479;BME280;46321;48.398;11.754;2024-02-26T04:23:35;94871.47;;;1.43;84.44
60479;BME280;46321;48.398;11.754;2024-02-26T04:26:01;94876.03;;;1.50;83.86
60479;BME280;46321;48.398;11.754;2024-02-26T04:28:26;94881.91;;;1.43;83.98
60479;BME280;46321;48.398;11.754;2024-02-26T04:30:54;94875.53;;;1.46;84.12
60479;BME280;46321;48.398;11.754;2024-02-26T04:33:19;94876.69;;;1.52;83.78
60479;BME280;46321;48.398;11.754;2024-02-26T04:35:44;94883.41;;;1.54;83.76
60479;BME280;46321;48.398;11.754;2024-02-26T04:38:09;94870.84;;;1.58;83.59
60479;BME280;46321;48.398;11.754;2024-02-26T04:40:35;94879.13;;;1.45;84.36
60479;BME280;46321;48.398;11.754;2024-02-26T04:43:00;94884.19;;;1.55;84.02
60479;BME280;46321;48.398;11.754;2024-02-26T04:45:25;94884.19;;;1.55;83.95
60479;BME280;46321;48.398;11.754;2024-02-26T04:47:50;94881.75;;;1.62;83.73
60479;BME280;46321;48.398;11.754;2024-02-26T04:50:16;94887.34;;;1.67;83.80
60479;BME280;46321;48.398;11.754;2024-02-26T04:52:41;94887.81;;;1.70;83.31
60479;BME280;46321;48.398;11.754;2024-02-26T04:55:07;94887.03;;;1.78;83.08
60479;BME280;46321;48.398;11.754;2024-02-26T04:57:32;94884.44;;;1.78;82.77
60479;BME280;46321;48.398;11.754;2024-02-26T04:59:57;94880.81;;;1.71;82.78
60479;BME280;46321;48.398;11.754;2024-02-26T05:02:23;94883.13;;;1.74;82.89
60479;BME280;46321;48.398;11.754;2024-02-26T05:04:49;94890.31;;;1.80;82.74
60479;BME280;46321;48.398;11.754;2024-02-26T05:07:14;94893.56;;;1.74;83.20
60479;BME280;46321;48.398;11.754;2024-02-26T05:09:42;94890.59;;;1.69;83.37
60479;BME280;46321;48.398;11.754;2024-02-26T05:12:09;94887.34;;;1.75;83.05
60479;BME280;46321;48.398;11.754;2024-02-26T05:14:34;94892.09;;;1.80;83.05
60479;BME280;46321;48.398;11.754;2024-02-26T05:16:59;94889.16;;;1.75;83.03
60479;BME280;46321;48.398;11.754;2024-02-26T05:19:24;94895.16;;;1.75;82.96
60479;BME280;46321;48.398;11.754;2024-02-26T05:21:50;94897.47;;;1.78;82.48
60479;BME280;46321;48.398;11.754;2024-02-26T05:24:16;94891.41;;;1.69;83.21
60479;BME280;46321;48.398;11.754;2024-02-26T05:26:43;94884.84;;;1.57;83.24
60479;BME280;46321;48.398;11.754;2024-02-26T05:29:08;94881.41;;;1.48;83.82
60479;BME280;46321;48.398;11.754;2024-02-26T05:31:33;94877.47;;;1.44;83.94
60479;BME280;46321;48.398;11.754;2024-02-26T05:33:59;94877.16;;;1.47;84.04
60479;BME280;46321;48.398;11.754;2024-02-26T05:36:24;94879.94;;;1.45;84.07
60479;BME280;46321;48.398;11.754;2024-02-26T05:38:50;94879.47;;;1.50;83.93
60479;BME280;46321;48.398;11.754;2024-02-26T05:41:16;94888.09;;;1.51;83.70
60479;BME280;46321;48.398;11.754;2024-02-26T05:43:42;94899.03;;;1.54;83.39
60479;BME280;46321;48.398;11.754;2024-02-26T05:46:07;94895.78;;;1.52;83.46
60479;BME280;46321;48.398;11.754;2024-02-26T05:48:32;94890.22;;;1.47;83.43
60479;BME280;46321;48.398;11.754;2024-02-26T05:50:57;94899.00;;;1.46;83.54
60479;BME280;46321;48.398;11.754;2024-02-26T05:53:23;94898.66;;;1.41;83.50
60479;BME280;46321;48.398;11.754;2024-02-26T05:55:48;94899.97;;;1.45;83.40
60479;BME280;46321;48.398;11.754;2024-02-26T05:58:13;94907.63;;;1.46;83.19
60479;BME280;46321;48.398;11.754;2024-02-26T06:00:39;94903.25;;;1.47;83.10
60479;BME280;46321;48.398;11.754;2024-02-26T06:03:04;94911.25;;;1.45;83.38
60479;BME280;46321;48.398;11.754;2024-02-26T06:05:29;94917.22;;;1.37;83.50
60479;BME280;46321;48.398;11.754;2024-02-26T06:07:55;94913.03;;;1.45;83.16
60479;BME280;46321;48.398;11.754;2024-02-26T06:10:20;94918.59;;;1.50;83.19
60479;BME280;46321;48.398;11.754;2024-02-26T06:12:46;94925.13;;;1.54;83.28
60479;BME280;46321;48.398;11.754;2024-02-26T06:15:12;94919.28;;;1.60;83.58
60479;BME280;46321;48.398;11.754;2024-02-26T06:17:37;94923.56;;;1.70;83.61
60479;BME280;46321;48.398;11.754;2024-02-26T06:20:02;94915.75;;;1.78;83.19
60479;BME280;46321;48.398;11.754;2024-02-26T06:22:30;94925.38;;;1.86;82.76
60479;BME280;46321;48.398;11.754;2024-02-26T06:24:55;94917.72;;;1.93;82.57
60479;BME280;46321;48.398;11.754;2024-02-26T06:27:20;94925.72;;;2.00;82.01
60479;BME280;46321;48.398;11.754;2024-02-26T06:29:47;94942.56;;;2.14;81.35
60479;BME280;46321;48.398;11.754;2024-02-26T06:32:12;94939.66;;;2.17;81.45
60479;BME280;46321;48.398;11.754;2024-02-26T06:34:37;94936.56;;;2.22;81.06
60479;BME280;46321;48.398;11.754;2024-02-26T06:37:03;94949.94;;;2.35;80.68
60479;BME280;46321;48.398;11.754;2024-02-26T06:39:28;94953.69;;;2.41;80.00
60479;BME280;46321;48.398;11.754;2024-02-26T06:41:54;94953.38;;;2.53;79.50
60479;BME280;46321;48.398;11.754;2024-02-26T06:44:25;94961.22;;;2.61;79.56
60479;BME280;46321;48.398;11.754;2024-02-26T06:46:51;94958.47;;;2.71;79.37
60479;BME280;46321;48.398;11.754;2024-02-26T06:49:16;94954.84;;;2.80;78.90
60479;BME280;46321;48.398;11.754;2024-02-26T06:51:41;94955.00;;;2.79;78.91
60479;BME280;46321;48.398;11.754;2024-02-26T06:54:06;94956.47;;;2.81;78.67
60479;BME280;46321;48.398;11.754;2024-02-26T06:56:31;94960.06;;;2.80;78.26
60479;BME280;46321;48.398;11.754;2024-02-26T06:58:57;94962.50;;;2.73;78.85
60479;BME280;46321;48.398;11.754;2024-02-26T07:01:22;94970.53;;;2.89;79.11
60479;BME280;46321;48.398;11.754;2024-02-26T07:03:47;94963.16;;;3.01;78.87
60479;BME280;46321;48.398;11.754;2024-02-26T07:06:13;94967.38;;;3.18;78.29
60479;BME280;46321;48.398;11.754;2024-02-26T07:08:39;94970.13;;;3.25;77.21
60479;BME280;46321;48.398;11.754;2024-02-26T07:11:07;94978.63;;;3.36;76.43
60479;BME280;46321;48.398;11.754;2024-02-26T07:13:33;94983.66;;;3.46;75.58
60479;BME280;46321;48.398;11.754;2024-02-26T07:15:59;94978.72;;;3.59;75.12
60479;BME280;46321;48.398;11.754;2024-02-26T07:18:24;94966.44;;;3.68;75.47
60479;BME280;46321;48.398;11.754;2024-02-26T07:20:50;94972.75;;;3.82;75.29
60479;BME280;46321;48.398;11.754;2024-02-26T07:23:15;94975.28;;;3.99;74.79
60479;BME280;46321;48.398;11.754;2024-02-26T07:25:40;94975.84;;;4.18;74.38
60479;BME280;46321;48.398;11.754;2024-02-26T07:28:06;94987.03;;;4.35;74.32
60479;BME280;46321;48.398;11.754;2024-02-26T07:30:31;94989.50;;;4.60;73.88
60479;BME280;46321;48.398;11.754;2024-02-26T07:32:57;94991.66;;;4.80;72.87
60479;BME280;46321;48.398;11.754;2024-02-26T07:35:22;94996.78;;;4.97;71.44
60479;BME280;46321;48.398;11.754;2024-02-26T07:37:48;94996.78;;;4.97;70.17
60479;BME280;46321;48.398;11.754;2024-02-26T07:40:14;95005.03;;;5.09;69.99
60479;BME280;46321;48.398;11.754;2024-02-26T07:42:39;94995.38;;;5.24;69.71
60479;BME280;46321;48.398;11.754;2024-02-26T07:45:05;94990.19;;;5.40;69.50
60479;BME280;46321;48.398;11.754;2024-02-26T07:47:30;94990.28;;;5.46;69.22
60479;BME280;46321;48.398;11.754;2024-02-26T07:49:56;94990.19;;;5.55;67.88
60479;BME280;46321;48.398;11.754;2024-02-26T07:52:22;94982.50;;;5.68;67.85
60479;BME280;46321;48.398;11.754;2024-02-26T07:54:47;94975.59;;;5.67;68.09
60479;BME280;46321;48.398;11.754;2024-02-26T07:57:13;94982.03;;;5.80;67.91
60479;BME280;46321;48.398;11.754;2024-02-26T07:59:41;94977.66;;;5.87;67.58
60479;BME280;46321;48.398;11.754;2024-02-26T08:02:06;94981.28;;;6.16;66.43
60479;BME280;46321;48.398;11.754;2024-02-26T08:04:32;94983.88;;;6.32;65.87
60479;BME280;46321;48.398;11.754;2024-02-26T08:06:58;94990.22;;;6.59;65.03
60479;BME280;46321;48.398;11.754;2024-02-26T08:09:23;94985.75;;;7.04;64.26
60479;BME280;46321;48.398;11.754;2024-02-26T08:11:48;94993.63;;;7.26;62.77
60479;BME280;46321;48.398;11.754;2024-02-26T08:14:13;94988.00;;;7.07;61.76
60479;BME280;46321;48.398;11.754;2024-02-26T08:16:39;94992.34;;;6.93;62.21
60479;BME280;46321;48.398;11.754;2024-02-26T08:19:04;94996.72;;;6.63;62.98
60479;BME280;46321;48.398;11.754;2024-02-26T08:21:29;94989.31;;;6.52;63.24
60479;BME280;46321;48.398;11.754;2024-02-26T08:23:54;94994.47;;;6.38;62.66
60479;BME280;46321;48.398;11.754;2024-02-26T08:26:20;94993.75;;;6.29;63.67
60479;BME280;46321;48.398;11.754;2024-02-26T08:28:47;95003.66;;;6.12;64.07
60479;BME280;46321;48.398;11.754;2024-02-26T08:31:14;95002.09;;;6.03;64.98
60479;BME280;46321;48.398;11.754;2024-02-26T08:33:39;95011.63;;;6.04;64.80
60479;BME280;46321;48.398;11.754;2024-02-26T08:36:05;95007.94;;;6.13;65.21
60479;BME280;46321;48.398;11.754;2024-02-26T08:38:31;95016.31;;;6.24;65.33
60479;BME280;46321;48.398;11.754;2024-02-26T08:40:56;95012.53;;;6.26;65.59
60479;BME280;46321;48.398;11.754;2024-02-26T08:43:22;95009.72;;;6.50;65.14
60479;BME280;46321;48.398;11.754;2024-02-26T08:45:47;95006.81;;;6.60;65.34
60479;BME280;46321;48.398;11.754;2024-02-26T08:48:12;95018.41;;;6.87;64.40
60479;BME280;46321;48.398;11.754;2024-02-26T08:50:37;95009.38;;;6.97;63.75
60479;BME280;46321;48.398;11.754;2024-02-26T08:53:03;95010.72;;;7.15;63.77
60479;BME280;46321;48.398;11.754;2024-02-26T08:55:29;95011.94;;;7.12;62.96
60479;BME280;46321;48.398;11.754;2024-02-26T08:57:54;95023.88;;;7.15;63.31
60479;BME280;46321;48.398;11.754;2024-02-26T09:00:19;95015.31;;;7.28;62.75
60479;BME280;46321;48.398;11.754;2024-02-26T09:02:46;95021.75;;;7.25;63.81
60479;BME280;46321;48.398;11.754;2024-02-26T09:05:12;95014.44;;;7.20;62.91
60479;BME280;46321;48.398;11.754;2024-02-26T09:07:37;95021.31;;;7.21;62.58
60479;BME280;46321;48.398;11.754;2024-02-26T09:10:02;95022.81;;;7.31;62.99
60479;BME280;46321;48.398;11.754;2024-02-26T09:12:28;95019.34;;;7.30;62.25
60479;BME280;46321;48.398;11.754;2024-02-26T09:14:53;95017.88;;;6.99;62.78
60479;BME280;46321;48.398;11.754;2024-02-26T09:17:21;95013.94;;;6.88;63.25
60479;BME280;46321;48.398;11.754;2024-02-26T09:19:46;95010.69;;;6.86;64.11
60479;BME280;46321;48.398;11.754;2024-02-26T09:22:12;95013.88;;;6.81;64.00
60479;BME280;46321;48.398;11.754;2024-02-26T09:24:37;95014.91;;;6.58;64.52
60479;BME280;46321;48.398;11.754;2024-02-26T09:27:02;95015.75;;;6.66;64.72
60479;BME280;46321;48.398;11.754;2024-02-26T09:29:28;95012.06;;;6.60;63.86
60479;BME280;46321;48.398;11.754;2024-02-26T09:31:54;95012.97;;;6.67;63.34
60479;BME280;46321;48.398;11.754;2024-02-26T09:34:19;95008.25;;;6.84;62.84
60479;BME280;46321;48.398;11.754;2024-02-26T09:36:44;94999.66;;;6.97;61.99
60479;BME280;46321;48.398;11.754;2024-02-26T09:39:10;95003.69;;;7.79;60.37
60479;BME280;46321;48.398;11.754;2024-02-26T09:41:36;95009.28;;;8.61;57.78
60479;BME280;46321;48.398;11.754;2024-02-26T09:44:02;95016.16;;;8.48;57.69
60479;BME280;46321;48.398;11.754;2024-02-26T09:46:29;95024.16;;;8.89;56.48
60479;BME280;46321;48.398;11.754;2024-02-26T09:48:55;95024.19;;;9.30;55.63
60479;BME280;46321;48.398;11.754;2024-02-26T09:51:22;95022.44;;;10.11;54.57
60479;BME280;46321;48.398;11.754;2024-02-26T09:53:51;95018.84;;;10.90;52.80
60479;BME280;46321;48.398;11.754;2024-02-26T09:56:17;95018.91;;;11.86;49.05
60479;BME280;46321;48.398;11.754;2024-02-26T09:58:42;95015.66;;;13.02;46.04
60479;BME280;46321;48.398;11.754;2024-02-26T10:01:18;95020.00;;;14.23;44.12
60479;BME280;46321;48.398;11.754;2024-02-26T10:03:50;95024.22;;;15.36;41.83
60479;BME280;46321;48.398;11.754;2024-02-26T10:06:16;95020.34;;;16.63;38.70
60479;BME280;46321;48.398;11.754;2024-02-26T10:08:43;95023.44;;;15.93;38.50
60479;BME280;46321;48.398;11.754;2024-02-26T10:11:08;95017.94;;;17.83;36.09
60479;BME280;46321;48.398;11.754;2024-02-26T10:13:35;95009.72;;;20.47;32.17
60479;BME280;46321;48.398;11.754;2024-02-26T10:16:01;95003.88;;;22.21;28.30
60479;BME280;46321;48.398;11.754;2024-02-26T10:18:51;94993.41;;;26.34;24.31
60479;BME280;46321;48.398;11.754;2024-02-26T10:21:20;94995.78;;;26.94;21.81
60479;BME280;46321;48.398;11.754;2024-02-26T10:23:46;94993.91;;;26.36;22.07
60479;BME280;46321;48.398;11.754;2024-02-26T10:26:13;94980.88;;;28.89;19.94
60479;BME280;46321;48.398;11.754;2024-02-26T10:28:39;94980.75;;;29.07;19.41
60479;BME280;46321;48.398;11.754;2024-02-26T10:31:06;94983.34;;;25.84;21.55
60479;BME280;46321;48.398;11.754;2024-02-26T10:33:33;94985.69;;;23.33;24.59
60479;BME280;46321;48.398;11.754;2024-02-26T10:36:01;94988.19;;;22.28;25.66
60479;BME280;46321;48.398;11.754;2024-02-26T10:38:26;94983.75;;;21.58;26.28
60479;BME280;46321;48.398;11.754;2024-02-26T10:40:51;94976.59;;;21.08;26.55
60479;BME280;46321;48.398;11.754;2024-02-26T10:43:16;94972.97;;;18.39;29.59
60479;BME280;46321;48.398;11.754;2024-02-26T10:45:43;94982.28;;;16.51;32.43
60479;BME280;46321;48.398;11.754;2024-02-26T10:48:13;94980.91;;;15.46;34.48
60479;BME280;46321;48.398;11.754;2024-02-26T10:50:40;94976.72;;;14.69;37.04
60479;BME280;46321;48.398;11.754;2024-02-26T10:53:27;94976.88;;;14.09;37.75
60479;BME280;46321;48.398;11.754;2024-02-26T10:56:13;94973.22;;;14.39;37.89
60479;BME280;46321;48.398;11.754;2024-02-26T10:58:41;94958.78;;;14.94;38.33
60479;BME280;46321;48.398;11.754;2024-02-26T11:01:08;94961.44;;;15.28;36.94
60479;BME280;46321;48.398;11.754;2024-02-26T11:03:35;94960.66;;;14.81;37.60
60479;BME280;46321;48.398;11.754;2024-02-26T11:06:02;94962.34;;;14.00;38.88
60479;BME280;46321;48.398;11.754;2024-02-26T11:08:29;94954.81;;;14.08;39.11
60479;BME280;46321;48.398;11.754;2024-02-26T11:10:56;94958.03;;;14.11;39.64
60479;BME280;46321;48.398;11.754;2024-02-26T11:13:23;94963.38;;;13.99;39.93
60479;BME280;46321;48.398;11.754;2024-02-26T11:15:52;94958.13;;;14.16;39.78
60479;BME280;46321;48.398;11.754;2024-02-26T11:18:20;94964.91;;;14.36;39.80
60479;BME280;46321;48.398;11.754;2024-02-26T11:20:48;94970.81;;;14.67;38.51
60479;BME280;46321;48.398;11.754;2024-02-26T11:23:14;94972.75;;;15.36;37.63
60479;BME280;46321;48.398;11.754;2024-02-26T11:25:40;94968.53;;;15.97;36.16
60479;BME280;46321;48.398;11.754;2024-02-26T11:28:10;94963.88;;;15.87;36.28
60479;BME280;46321;48.398;11.754;2024-02-26T11:30:39;94965.28;;;15.72;36.65
60479;BME280;46321;48.398;11.754;2024-02-26T11:33:08;94966.72;;;16.98;35.15
60479;BME280;46321;48.398;11.754;2024-02-26T11:35:35;94959.78;;;17.73;33.77
60479;BME280;46321;48.398;11.754;2024-02-26T11:38:01;94964.28;;;19.06;31.08
60479;BME280;46321;48.398;11.754;2024-02-26T11:40:27;94968.50;;;19.86;30.06
60479;BME280;46321;48.398;11.754;2024-02-26T11:42:53;94963.38;;;22.06;27.21
60479;BME280;46321;48.398;11.754;2024-02-26T11:48:12;94977.00;;;17.44;34.70
60479;BME280;46321;48.398;11.754;2024-02-26T11:50:51;94977.19;;;16.27;34.53
60479;BME280;46321;48.398;11.754;2024-02-26T11:55:46;94978.97;;;15.24;37.14
60479;BME280;46321;48.398;11.754;2024-02-26T11:58:11;94978.16;;;15.41;38.02
60479;BME280;46321;48.398;11.754;2024-02-26T12:00:36;94986.88;;;15.19;38.76
60479;BME280;46321;48.398;11.754;2024-02-26T12:03:02;94988.56;;;15.08;38.55
60479;BME280;46321;48.398;11.754;2024-02-26T12:05:32;94983.16;;;15.20;37.86
60479;BME280;46321;48.398;11.754;2024-02-26T12:08:04;94992.78;;;15.38;36.85
60479;BME280;46321;48.398;11.754;2024-02-26T12:10:35;94986.13;;;15.75;36.79
60479;BME280;46321;48.398;11.754;2024-02-26T12:15:36;94988.41;;;15.66;38.12
60479;BME280;46321;48.398;11.754;2024-02-26T12:18:03;94993.16;;;15.13;37.76
60479;BME280;46321;48.398;11.754;2024-02-26T12:20:29;94991.47;;;14.89;39.01
60479;BME280;46321;48.398;11.754;2024-02-26T12:22:54;94991.47;;;14.89;38.62
60479;BME280;46321;48.398;11.754;2024-02-26T12:25:25;94994.72;;;14.50;39.08
60479;BME280;46321;48.398;11.754;2024-02-26T12:27:54;94986.34;;;14.87;39.30
60479;BME280;46321;48.398;11.754;2024-02-26T12:30:20;94988.66;;;15.13;38.92
60479;BME280;46321;48.398;11.754;2024-02-26T12:32:47;94985.13;;;15.07;39.28
60479;BME280;46321;48.398;11.754;2024-02-26T12:35:13;94992.69;;;14.98;39.23
60479;BME280;46321;48.398;11.754;2024-02-26T12:37:39;94991.34;;;14.84;39.38
60479;BME280;46321;48.398;11.754;2024-02-26T12:40:06;94993.41;;;14.94;38.83
60479;BME280;46321;48.398;11.754;2024-02-26T12:42:33;94995.41;;;14.86;38.90
60479;BME280;46321;48.398;11.754;2024-02-26T12:45:05;95003.66;;;15.02;38.93
60479;BME280;46321;48.398;11.754;2024-02-26T12:47:35;95002.59;;;15.03;38.44
60479;BME280;46321;48.398;11.754;2024-02-26T12:50:01;95006.75;;;15.28;39.15
60479;BME280;46321;48.398;11.754;2024-02-26T12:52:27;95013.63;;;15.59;38.52
60479;BME280;46321;48.398;11.754;2024-02-26T12:54:53;95020.47;;;15.20;38.72
60479;BME280;46321;48.398;11.754;2024-02-26T12:57:19;95014.84;;;15.16;38.18
60479;BME280;46321;48.398;11.754;2024-02-26T12:59:44;95015.09;;;15.32;39.43